sensor_id;sensor_type;location;lat;lon;timestamp;temperature;humidity
11264;DHT22;5689;48.798;9.070;2022-07-23T00:00:33;25.10;88.60
11264;DHT22;5689;48.798;9.070;2022-07-23T00:03:05;25.00;88.90
11264;DHT22;5689;48.798;9.070;2022-07-23T00:05:34;24.90;89.30
11264;DHT22;5689;48.798;9.070;2022-07-23T00:08:02;24.80;89.50
11264;DHT22;5689;48.798;9.070;2022-07-23T00:10:30;24.80;89.80
11264;DHT22;5689;48.798;9.070;2022-07-23T00:12:58;24.80;90.00
11264;DHT22;5689;48.798;9.070;2022-07-23T00:15:26;24.80;90.20
11264;DHT22;5689;48.798;9.070;2022-07-23T00:17:54;24.70;90.60
11264;DHT22;5689;48.798;9.070;2022-07-23T00:20:23;24.50;90.80
11264;DHT22;5689;48.798;9.070;2022-07-23T00:22:54;24.40;91.00
11264;DHT22;5689;48.798;9.070;2022-07-23T00:25:23;24.40;91.30
11264;DHT22;5689;48.798;9.070;2022-07-23T00:27:53;24.30;91.50
11264;DHT22;5689;48.798;9.070;2022-07-23T00:30:21;24.30;91.70
11264;DHT22;5689;48.798;9.070;2022-07-23T00:32:53;24.20;91.80
11264;DHT22;5689;48.798;9.070;2022-07-23T00:35:25;24.30;91.90
11264;DHT22;5689;48.798;9.070;2022-07-23T00:37:53;24.10;92.20
11264;DHT22;5689;48.798;9.070;2022-07-23T00:40:22;24.10;92.50
11264;DHT22;5689;48.798;9.070;2022-07-23T00:42:50;24.00;92.90
11264;DHT22;5689;48.798;9.070;2022-07-23T00:45:19;23.80;93.60
11264;DHT22;5689;48.798;9.070;2022-07-23T00:47:47;23.50;94.50
11264;DHT22;5689;48.798;9.070;2022-07-23T00:50:15;23.50;94.60
11264;DHT22;5689;48.798;9.070;2022-07-23T00:52:45;23.60;94.20
11264;DHT22;5689;48.798;9.070;2022-07-23T00:55:14;23.70;94.00
11264;DHT22;5689;48.798;9.070;2022-07-23T00:57:42;23.80;93.70
11264;DHT22;5689;48.798;9.070;2022-07-23T01:00:13;23.80;93.50
11264;DHT22;5689;48.798;9.070;2022-07-23T01:02:41;23.80;93.00
11264;DHT22;5689;48.798;9.070;2022-07-23T01:05:09;23.90;92.80
11264;DHT22;5689;48.798;9.070;2022-07-23T01:07:38;23.90;92.70
11264;DHT22;5689;48.798;9.070;2022-07-23T01:10:08;23.90;92.70
11264;DHT22;5689;48.798;9.070;2022-07-23T01:12:50;23.90;92.80
11264;DHT22;5689;48.798;9.070;2022-07-23T01:15:18;23.80;93.10
11264;DHT22;5689;48.798;9.070;2022-07-23T01:17:46;23.80;93.30
11264;DHT22;5689;48.798;9.070;2022-07-23T01:20:14;23.70;93.50
11264;DHT22;5689;48.798;9.070;2022-07-23T01:22:43;23.70;93.60
11264;DHT22;5689;48.798;9.070;2022-07-23T01:25:12;23.70;93.60
11264;DHT22;5689;48.798;9.070;2022-07-23T01:27:48;23.70;93.70
11264;DHT22;5689;48.798;9.070;2022-07-23T01:30:16;23.60;93.70
11264;DHT22;5689;48.798;9.070;2022-07-23T01:32:45;23.60;93.60
11264;DHT22;5689;48.798;9.070;2022-07-23T01:35:13;23.70;93.80
11264;DHT22;5689;48.798;9.070;2022-07-23T01:37:43;23.60;94.20
11264;DHT22;5689;48.798;9.070;2022-07-23T01:40:11;23.40;94.70
11264;DHT22;5689;48.798;9.070;2022-07-23T01:42:39;23.30;94.80
11264;DHT22;5689;48.798;9.070;2022-07-23T01:45:09;23.30;94.90
11264;DHT22;5689;48.798;9.070;2022-07-23T01:47:41;23.40;94.30
11264;DHT22;5689;48.798;9.070;2022-07-23T01:50:10;23.40;94.00
11264;DHT22;5689;48.798;9.070;2022-07-23T01:53:08;23.60;93.00
11264;DHT22;5689;48.798;9.070;2022-07-23T01:55:36;23.70;92.90
11264;DHT22;5689;48.798;9.070;2022-07-23T01:58:05;23.70;92.60
11264;DHT22;5689;48.798;9.070;2022-07-23T02:00:33;23.30;94.50
11264;DHT22;5689;48.798;9.070;2022-07-23T02:03:01;23.10;95.50
11264;DHT22;5689;48.798;9.070;2022-07-23T02:05:29;23.10;95.60
11264;DHT22;5689;48.798;9.070;2022-07-23T02:07:59;23.00;95.60
11264;DHT22;5689;48.798;9.070;2022-07-23T02:10:28;22.90;95.80
11264;DHT22;5689;48.798;9.070;2022-07-23T02:12:56;22.90;95.60
11264;DHT22;5689;48.798;9.070;2022-07-23T02:15:24;22.80;96.30
11264;DHT22;5689;48.798;9.070;2022-07-23T02:17:52;22.90;96.20
11264;DHT22;5689;48.798;9.070;2022-07-23T02:20:20;22.90;96.30
11264;DHT22;5689;48.798;9.070;2022-07-23T02:22:48;22.80;96.70
11264;DHT22;5689;48.798;9.070;2022-07-23T02:25:16;22.70;97.20
11264;DHT22;5689;48.798;9.070;2022-07-23T02:27:46;22.50;97.40
11264;DHT22;5689;48.798;9.070;2022-07-23T02:30:14;22.70;97.30
11264;DHT22;5689;48.798;9.070;2022-07-23T02:32:42;22.70;97.20
11264;DHT22;5689;48.798;9.070;2022-07-23T02:35:10;22.60;97.40
11264;DHT22;5689;48.798;9.070;2022-07-23T02:37:38;22.70;97.00
11264;DHT22;5689;48.798;9.070;2022-07-23T02:40:07;22.80;96.60
11264;DHT22;5689;48.798;9.070;2022-07-23T02:42:38;23.00;96.40
11264;DHT22;5689;48.798;9.070;2022-07-23T02:45:08;23.10;96.10
11264;DHT22;5689;48.798;9.070;2022-07-23T02:47:38;23.10;96.10
11264;DHT22;5689;48.798;9.070;2022-07-23T02:50:07;23.10;96.00
11264;DHT22;5689;48.798;9.070;2022-07-23T02:52:35;23.10;96.10
11264;DHT22;5689;48.798;9.070;2022-07-23T02:55:04;23.10;96.50
11264;DHT22;5689;48.798;9.070;2022-07-23T02:57:32;23.00;97.20
11264;DHT22;5689;48.798;9.070;2022-07-23T03:00:00;22.70;98.00
11264;DHT22;5689;48.798;9.070;2022-07-23T03:02:30;22.60;98.50
11264;DHT22;5689;48.798;9.070;2022-07-23T03:04:58;22.60;99.10
11264;DHT22;5689;48.798;9.070;2022-07-23T03:10:12;22.20;99.90
11264;DHT22;5689;48.798;9.070;2022-07-23T03:12:43;22.20;99.90
11264;DHT22;5689;48.798;9.070;2022-07-23T03:15:11;22.20;99.90
11264;DHT22;5689;48.798;9.070;2022-07-23T03:17:41;22.40;99.90
11264;DHT22;5689;48.798;9.070;2022-07-23T03:20:09;22.30;99.90
11264;DHT22;5689;48.798;9.070;2022-07-23T03:22:39;22.30;99.90
11264;DHT22;5689;48.798;9.070;2022-07-23T03:25:08;22.40;99.90
11264;DHT22;5689;48.798;9.070;2022-07-23T03:27:36;22.50;99.90
11264;DHT22;5689;48.798;9.070;2022-07-23T03:30:06;22.20;99.90
11264;DHT22;5689;48.798;9.070;2022-07-23T03:32:34;22.10;99.90
11264;DHT22;5689;48.798;9.070;2022-07-23T03:35:04;21.90;99.90
11264;DHT22;5689;48.798;9.070;2022-07-23T03:37:34;21.80;99.90
11264;DHT22;5689;48.798;9.070;2022-07-23T03:40:02;21.70;99.90
11264;DHT22;5689;48.798;9.070;2022-07-23T03:42:30;21.70;99.90
11264;DHT22;5689;48.798;9.070;2022-07-23T03:44:59;21.70;99.90
11264;DHT22;5689;48.798;9.070;2022-07-23T03:47:31;21.70;99.90
11264;DHT22;5689;48.798;9.070;2022-07-23T03:49:59;21.80;99.90
11264;DHT22;5689;48.798;9.070;2022-07-23T03:52:28;22.00;99.90
11264;DHT22;5689;48.798;9.070;2022-07-23T03:54:56;22.30;99.90
11264;DHT22;5689;48.798;9.070;2022-07-23T03:57:24;22.60;99.90
11264;DHT22;5689;48.798;9.070;2022-07-23T03:59:52;22.80;99.50
11264;DHT22;5689;48.798;9.070;2022-07-23T04:02:20;22.80;98.70
11264;DHT22;5689;48.798;9.070;2022-07-23T04:04:49;22.90;98.40
11264;DHT22;5689;48.798;9.070;2022-07-23T04:07:17;23.00;98.00
11264;DHT22;5689;48.798;9.070;2022-07-23T04:09:47;23.00;98.00
11264;DHT22;5689;48.798;9.070;2022-07-23T04:12:15;23.00;97.90
11264;DHT22;5689;48.798;9.070;2022-07-23T04:14:43;22.90;98.80
11264;DHT22;5689;48.798;9.070;2022-07-23T04:17:11;22.80;99.30
11264;DHT22;5689;48.798;9.070;2022-07-23T04:19:42;22.80;99.10
11264;DHT22;5689;48.798;9.070;2022-07-23T04:22:14;22.90;98.20
11264;DHT22;5689;48.798;9.070;2022-07-23T04:24:42;23.00;99.20
11264;DHT22;5689;48.798;9.070;2022-07-23T04:27:11;22.70;99.80
11264;DHT22;5689;48.798;9.070;2022-07-23T04:29:39;22.60;99.90
11264;DHT22;5689;48.798;9.070;2022-07-23T04:32:07;22.60;99.90
11264;DHT22;5689;48.798;9.070;2022-07-23T04:34:35;22.50;99.90
11264;DHT22;5689;48.798;9.070;2022-07-23T04:37:04;22.40;99.90
11264;DHT22;5689;48.798;9.070;2022-07-23T04:39:32;22.20;99.90
11264;DHT22;5689;48.798;9.070;2022-07-23T04:42:00;22.10;99.90
11264;DHT22;5689;48.798;9.070;2022-07-23T04:44:31;22.00;99.90
11264;DHT22;5689;48.798;9.070;2022-07-23T04:47:01;22.00;99.90
11264;DHT22;5689;48.798;9.070;2022-07-23T04:49:28;21.90;99.90
11264;DHT22;5689;48.798;9.070;2022-07-23T04:51:56;22.00;99.90
11264;DHT22;5689;48.798;9.070;2022-07-23T04:54:25;22.00;99.90
11264;DHT22;5689;48.798;9.070;2022-07-23T04:56:53;22.10;99.90
11264;DHT22;5689;48.798;9.070;2022-07-23T04:59:21;22.30;99.90
11264;DHT22;5689;48.798;9.070;2022-07-23T05:01:57;22.30;99.90
11264;DHT22;5689;48.798;9.070;2022-07-23T05:04:25;22.40;99.90
11264;DHT22;5689;48.798;9.070;2022-07-23T05:06:53;22.40;99.90
11264;DHT22;5689;48.798;9.070;2022-07-23T05:09:21;22.50;99.90
11264;DHT22;5689;48.798;9.070;2022-07-23T05:11:50;22.50;99.90
11264;DHT22;5689;48.798;9.070;2022-07-23T05:14:21;22.50;99.90
11264;DHT22;5689;48.798;9.070;2022-07-23T05:16:50;22.60;99.90
11264;DHT22;5689;48.798;9.070;2022-07-23T05:19:23;22.60;99.90
11264;DHT22;5689;48.798;9.070;2022-07-23T05:21:52;22.90;99.90
11264;DHT22;5689;48.798;9.070;2022-07-23T05:24:20;22.90;99.90
11264;DHT22;5689;48.798;9.070;2022-07-23T05:26:49;23.10;99.90
11264;DHT22;5689;48.798;9.070;2022-07-23T05:29:18;23.20;99.90
11264;DHT22;5689;48.798;9.070;2022-07-23T05:31:46;23.60;99.90
11264;DHT22;5689;48.798;9.070;2022-07-23T05:34:14;23.80;99.90
11264;DHT22;5689;48.798;9.070;2022-07-23T05:36:45;24.00;99.90
11264;DHT22;5689;48.798;9.070;2022-07-23T05:39:13;23.80;99.90
11264;DHT22;5689;48.798;9.070;2022-07-23T05:41:42;23.50;99.90
11264;DHT22;5689;48.798;9.070;2022-07-23T05:44:10;23.20;99.90
11264;DHT22;5689;48.798;9.070;2022-07-23T05:46:40;23.10;99.90
11264;DHT22;5689;48.798;9.070;2022-07-23T05:49:12;23.30;99.90
11264;DHT22;5689;48.798;9.070;2022-07-23T05:52:03;23.70;99.10
11264;DHT22;5689;48.798;9.070;2022-07-23T05:54:48;23.60;98.10
11264;DHT22;5689;48.798;9.070;2022-07-23T05:57:16;23.70;98.00
11264;DHT22;5689;48.798;9.070;2022-07-23T05:59:47;23.80;99.30
11264;DHT22;5689;48.798;9.070;2022-07-23T06:02:15;23.60;99.80
11264;DHT22;5689;48.798;9.070;2022-07-23T06:04:43;23.50;99.90
11264;DHT22;5689;48.798;9.070;2022-07-23T06:07:22;23.30;99.90
11264;DHT22;5689;48.798;9.070;2022-07-23T06:09:51;23.10;99.90
11264;DHT22;5689;48.798;9.070;2022-07-23T06:12:19;23.10;99.90
11264;DHT22;5689;48.798;9.070;2022-07-23T06:14:47;23.00;99.90
11264;DHT22;5689;48.798;9.070;2022-07-23T06:17:16;23.20;99.90
11264;DHT22;5689;48.798;9.070;2022-07-23T06:19:44;23.40;99.90
11264;DHT22;5689;48.798;9.070;2022-07-23T06:22:12;24.00;99.90
11264;DHT22;5689;48.798;9.070;2022-07-23T06:24:42;24.90;99.90
11264;DHT22;5689;48.798;9.070;2022-07-23T06:27:10;24.90;99.70
11264;DHT22;5689;48.798;9.070;2022-07-23T06:29:38;24.90;98.70
11264;DHT22;5689;48.798;9.070;2022-07-23T06:32:07;25.00;98.30
11264;DHT22;5689;48.798;9.070;2022-07-23T06:34:35;24.90;98.10
11264;DHT22;5689;48.798;9.070;2022-07-23T06:37:03;24.70;98.30
11264;DHT22;5689;48.798;9.070;2022-07-23T06:39:31;24.90;98.30
11264;DHT22;5689;48.798;9.070;2022-07-23T06:42:01;25.00;97.40
11264;DHT22;5689;48.798;9.070;2022-07-23T06:44:37;24.60;97.90
11264;DHT22;5689;48.798;9.070;2022-07-23T06:47:07;24.80;97.40
11264;DHT22;5689;48.798;9.070;2022-07-23T06:49:35;24.90;96.90
11264;DHT22;5689;48.798;9.070;2022-07-23T06:52:03;24.20;98.10
11264;DHT22;5689;48.798;9.070;2022-07-23T06:54:32;23.70;99.20
11264;DHT22;5689;48.798;9.070;2022-07-23T06:57:02;23.60;99.70
11264;DHT22;5689;48.798;9.070;2022-07-23T06:59:30;23.40;99.90
11264;DHT22;5689;48.798;9.070;2022-07-23T07:01:58;23.10;99.90
11264;DHT22;5689;48.798;9.070;2022-07-23T07:04:26;23.00;99.90
11264;DHT22;5689;48.798;9.070;2022-07-23T07:06:54;23.00;99.90
11264;DHT22;5689;48.798;9.070;2022-07-23T07:09:23;23.20;99.90
11264;DHT22;5689;48.798;9.070;2022-07-23T07:11:51;23.20;99.90
11264;DHT22;5689;48.798;9.070;2022-07-23T07:14:20;22.70;99.90
11264;DHT22;5689;48.798;9.070;2022-07-23T07:16:48;22.70;99.90
11264;DHT22;5689;48.798;9.070;2022-07-23T07:19:16;22.70;99.90
11264;DHT22;5689;48.798;9.070;2022-07-23T07:21:44;22.50;99.90
11264;DHT22;5689;48.798;9.070;2022-07-23T07:24:12;22.50;99.90
11264;DHT22;5689;48.798;9.070;2022-07-23T07:26:40;22.30;99.90
11264;DHT22;5689;48.798;9.070;2022-07-23T07:29:08;21.70;99.90
11264;DHT22;5689;48.798;9.070;2022-07-23T07:31:37;21.50;99.90
11264;DHT22;5689;48.798;9.070;2022-07-23T07:34:05;21.40;99.90
11264;DHT22;5689;48.798;9.070;2022-07-23T07:36:33;21.50;99.90
11264;DHT22;5689;48.798;9.070;2022-07-23T07:39:03;22.60;99.90
11264;DHT22;5689;48.798;9.070;2022-07-23T07:41:32;24.40;99.90
11264;DHT22;5689;48.798;9.070;2022-07-23T07:44:00;24.50;99.90
11264;DHT22;5689;48.798;9.070;2022-07-23T07:46:28;23.90;99.90
11264;DHT22;5689;48.798;9.070;2022-07-23T07:48:58;23.70;99.90
11264;DHT22;5689;48.798;9.070;2022-07-23T07:51:27;23.30;99.90
11264;DHT22;5689;48.798;9.070;2022-07-23T07:53:56;23.70;99.90
11264;DHT22;5689;48.798;9.070;2022-07-23T07:56:24;23.50;99.90
11264;DHT22;5689;48.798;9.070;2022-07-23T07:58:52;23.70;99.90
11264;DHT22;5689;48.798;9.070;2022-07-23T08:01:20;23.50;99.90
11264;DHT22;5689;48.798;9.070;2022-07-23T08:03:48;23.30;99.90
11264;DHT22;5689;48.798;9.070;2022-07-23T08:06:18;23.80;99.90
11264;DHT22;5689;48.798;9.070;2022-07-23T08:08:45;24.60;99.90
11264;DHT22;5689;48.798;9.070;2022-07-23T08:11:13;24.50;99.90
11264;DHT22;5689;48.798;9.070;2022-07-23T08:13:41;25.10;99.90
11264;DHT22;5689;48.798;9.070;2022-07-23T08:16:11;25.00;99.90
11264;DHT22;5689;48.798;9.070;2022-07-23T08:18:39;24.40;99.90
11264;DHT22;5689;48.798;9.070;2022-07-23T08:21:07;24.00;99.90
11264;DHT22;5689;48.798;9.070;2022-07-23T08:23:36;23.60;99.90
11264;DHT22;5689;48.798;9.070;2022-07-23T08:26:04;23.70;99.90
11264;DHT22;5689;48.798;9.070;2022-07-23T08:28:32;24.00;99.90
11264;DHT22;5689;48.798;9.070;2022-07-23T08:31:01;25.40;99.90
11264;DHT22;5689;48.798;9.070;2022-07-23T08:33:29;26.70;99.90
11264;DHT22;5689;48.798;9.070;2022-07-23T08:35:57;28.20;96.40
11264;DHT22;5689;48.798;9.070;2022-07-23T08:38:26;29.60;94.80
11264;DHT22;5689;48.798;9.070;2022-07-23T08:40:57;30.30;91.20
11264;DHT22;5689;48.798;9.070;2022-07-23T08:43:27;29.90;89.80
11264;DHT22;5689;48.798;9.070;2022-07-23T08:45:58;31.80;83.90
11264;DHT22;5689;48.798;9.070;2022-07-23T08:48:29;32.30;78.50
11264;DHT22;5689;48.798;9.070;2022-07-23T08:50:59;32.60;78.10
11264;DHT22;5689;48.798;9.070;2022-07-23T08:53:28;31.30;77.30
11264;DHT22;5689;48.798;9.070;2022-07-23T08:55:59;30.60;78.50
11264;DHT22;5689;48.798;9.070;2022-07-23T08:58:28;30.70;77.70
11264;DHT22;5689;48.798;9.070;2022-07-23T09:00:57;31.30;78.00
11264;DHT22;5689;48.798;9.070;2022-07-23T09:03:27;32.60;73.00
11264;DHT22;5689;48.798;9.070;2022-07-23T09:05:57;33.60;70.80
11264;DHT22;5689;48.798;9.070;2022-07-23T09:08:34;32.40;71.70
11264;DHT22;5689;48.798;9.070;2022-07-23T09:11:04;33.30;69.20
11264;DHT22;5689;48.798;9.070;2022-07-23T09:13:35;31.20;74.10
11264;DHT22;5689;48.798;9.070;2022-07-23T09:16:07;29.50;78.40
11264;DHT22;5689;48.798;9.070;2022-07-23T09:18:38;28.50;82.80
11264;DHT22;5689;48.798;9.070;2022-07-23T09:21:17;28.80;80.60
11264;DHT22;5689;48.798;9.070;2022-07-23T09:23:48;29.10;81.30
11264;DHT22;5689;48.798;9.070;2022-07-23T09:26:27;28.80;83.00
11264;DHT22;5689;48.798;9.070;2022-07-23T09:29:03;27.50;87.70
11264;DHT22;5689;48.798;9.070;2022-07-23T09:31:34;27.40;88.20
11264;DHT22;5689;48.798;9.070;2022-07-23T09:34:12;27.90;87.10
11264;DHT22;5689;48.798;9.070;2022-07-23T09:36:40;29.80;83.60
11264;DHT22;5689;48.798;9.070;2022-07-23T09:39:10;29.50;82.50
11264;DHT22;5689;48.798;9.070;2022-07-23T09:41:43;28.60;86.60
11264;DHT22;5689;48.798;9.070;2022-07-23T09:44:13;29.80;82.80
11264;DHT22;5689;48.798;9.070;2022-07-23T09:46:43;29.70;82.70
11264;DHT22;5689;48.798;9.070;2022-07-23T09:49:14;30.60;81.00
11264;DHT22;5689;48.798;9.070;2022-07-23T09:51:51;31.00;78.30
11264;DHT22;5689;48.798;9.070;2022-07-23T09:54:29;32.40;75.30
11264;DHT22;5689;48.798;9.070;2022-07-23T09:57:01;32.20;73.90
11264;DHT22;5689;48.798;9.070;2022-07-23T09:59:30;33.80;69.80
11264;DHT22;5689;48.798;9.070;2022-07-23T10:02:00;33.90;69.00
11264;DHT22;5689;48.798;9.070;2022-07-23T10:04:34;34.00;68.80
11264;DHT22;5689;48.798;9.070;2022-07-23T10:07:27;32.80;71.70
11264;DHT22;5689;48.798;9.070;2022-07-23T10:10:15;33.70;67.80
11264;DHT22;5689;48.798;9.070;2022-07-23T10:13:04;32.70;71.10
11264;DHT22;5689;48.798;9.070;2022-07-23T10:15:55;33.30;68.50
11264;DHT22;5689;48.798;9.070;2022-07-23T10:18:23;32.60;70.80
11264;DHT22;5689;48.798;9.070;2022-07-23T10:20:52;34.10;67.20
11264;DHT22;5689;48.798;9.070;2022-07-23T10:23:24;32.70;67.90
11264;DHT22;5689;48.798;9.070;2022-07-23T10:25:59;32.10;69.60
11264;DHT22;5689;48.798;9.070;2022-07-23T10:28:57;32.90;68.10
11264;DHT22;5689;48.798;9.070;2022-07-23T10:31:38;32.30;70.40
11264;DHT22;5689;48.798;9.070;2022-07-23T10:34:25;33.10;69.20
11264;DHT22;5689;48.798;9.070;2022-07-23T10:37:03;33.00;69.50
11264;DHT22;5689;48.798;9.070;2022-07-23T10:39:34;33.20;69.50
11264;DHT22;5689;48.798;9.070;2022-07-23T10:42:14;33.70;69.30
11264;DHT22;5689;48.798;9.070;2022-07-23T10:44:45;35.50;65.10
11264;DHT22;5689;48.798;9.070;2022-07-23T10:47:23;35.10;62.30
11264;DHT22;5689;48.798;9.070;2022-07-23T10:50:18;33.80;65.40
11264;DHT22;5689;48.798;9.070;2022-07-23T10:53:08;34.30;65.00
11264;DHT22;5689;48.798;9.070;2022-07-23T10:55:44;35.10;63.90
11264;DHT22;5689;48.798;9.070;2022-07-23T10:58:19;34.40;62.70
11264;DHT22;5689;48.798;9.070;2022-07-23T11:00:48;34.60;63.20
11264;DHT22;5689;48.798;9.070;2022-07-23T11:03:34;35.80;61.00
11264;DHT22;5689;48.798;9.070;2022-07-23T11:06:05;35.80;60.60
11264;DHT22;5689;48.798;9.070;2022-07-23T11:08:33;35.80;60.70
11264;DHT22;5689;48.798;9.070;2022-07-23T11:11:10;35.90;61.90
11264;DHT22;5689;48.798;9.070;2022-07-23T11:13:48;35.50;63.10
11264;DHT22;5689;48.798;9.070;2022-07-23T11:16:25;33.50;66.50
11264;DHT22;5689;48.798;9.070;2022-07-23T11:19:07;33.10;67.00
11264;DHT22;5689;48.798;9.070;2022-07-23T11:21:49;34.10;66.90
11264;DHT22;5689;48.798;9.070;2022-07-23T11:24:22;35.40;65.00
11264;DHT22;5689;48.798;9.070;2022-07-23T11:26:56;33.50;64.80
11264;DHT22;5689;48.798;9.070;2022-07-23T11:29:47;34.30;61.90
11264;DHT22;5689;48.798;9.070;2022-07-23T11:32:32;35.10;61.50
11264;DHT22;5689;48.798;9.070;2022-07-23T11:35:03;35.00;61.20
11264;DHT22;5689;48.798;9.070;2022-07-23T11:37:36;35.20;60.50
11264;DHT22;5689;48.798;9.070;2022-07-23T11:40:08;35.40;60.10
11264;DHT22;5689;48.798;9.070;2022-07-23T11:42:38;33.40;63.70
11264;DHT22;5689;48.798;9.070;2022-07-23T11:45:07;33.60;63.70
11264;DHT22;5689;48.798;9.070;2022-07-23T11:47:37;34.40;61.90
11264;DHT22;5689;48.798;9.070;2022-07-23T11:50:06;34.90;61.20
11264;DHT22;5689;48.798;9.070;2022-07-23T11:52:34;35.00;60.90
11264;DHT22;5689;48.798;9.070;2022-07-23T11:55:05;35.40;59.50
11264;DHT22;5689;48.798;9.070;2022-07-23T11:57:35;36.20;58.30
11264;DHT22;5689;48.798;9.070;2022-07-23T12:00:07;35.50;60.10
11264;DHT22;5689;48.798;9.070;2022-07-23T12:02:41;36.90;57.80
11264;DHT22;5689;48.798;9.070;2022-07-23T12:05:12;37.00;56.50
11264;DHT22;5689;48.798;9.070;2022-07-23T12:07:41;37.90;54.80
11264;DHT22;5689;48.798;9.070;2022-07-23T12:10:14;36.40;56.00
11264;DHT22;5689;48.798;9.070;2022-07-23T12:12:44;35.40;57.10
11264;DHT22;5689;48.798;9.070;2022-07-23T12:15:14;35.10;58.00
11264;DHT22;5689;48.798;9.070;2022-07-23T12:17:45;37.80;54.30
11264;DHT22;5689;48.798;9.070;2022-07-23T12:20:23;37.50;55.10
11264;DHT22;5689;48.798;9.070;2022-07-23T12:22:53;36.10;57.10
11264;DHT22;5689;48.798;9.070;2022-07-23T12:25:24;35.40;58.20
11264;DHT22;5689;48.798;9.070;2022-07-23T12:28:04;35.40;59.00
11264;DHT22;5689;48.798;9.070;2022-07-23T12:30:37;35.20;59.20
11264;DHT22;5689;48.798;9.070;2022-07-23T12:33:08;35.20;59.10
11264;DHT22;5689;48.798;9.070;2022-07-23T12:35:38;36.60;56.90
11264;DHT22;5689;48.798;9.070;2022-07-23T12:38:09;36.50;57.10
11264;DHT22;5689;48.798;9.070;2022-07-23T12:40:43;33.30;60.90
11264;DHT22;5689;48.798;9.070;2022-07-23T12:43:18;32.70;61.40
11264;DHT22;5689;48.798;9.070;2022-07-23T12:45:48;32.80;62.20
11264;DHT22;5689;48.798;9.070;2022-07-23T12:48:21;33.60;61.10
11264;DHT22;5689;48.798;9.070;2022-07-23T12:50:59;33.40;61.40
11264;DHT22;5689;48.798;9.070;2022-07-23T12:53:29;32.90;61.90
11264;DHT22;5689;48.798;9.070;2022-07-23T12:56:02;31.70;64.30
11264;DHT22;5689;48.798;9.070;2022-07-23T12:58:43;31.70;64.70
11264;DHT22;5689;48.798;9.070;2022-07-23T13:01:22;33.20;62.40
11264;DHT22;5689;48.798;9.070;2022-07-23T13:03:58;32.70;62.10
11264;DHT22;5689;48.798;9.070;2022-07-23T13:06:26;33.40;61.10
11264;DHT22;5689;48.798;9.070;2022-07-23T13:08:55;33.50;61.30
11264;DHT22;5689;48.798;9.070;2022-07-23T13:11:23;32.70;63.30
11264;DHT22;5689;48.798;9.070;2022-07-23T13:13:51;33.20;61.40
11264;DHT22;5689;48.798;9.070;2022-07-23T13:16:20;34.20;59.30
11264;DHT22;5689;48.798;9.070;2022-07-23T13:18:48;35.00;58.70
11264;DHT22;5689;48.798;9.070;2022-07-23T13:21:17;34.50;59.00
11264;DHT22;5689;48.798;9.070;2022-07-23T13:23:45;35.50;57.20
11264;DHT22;5689;48.798;9.070;2022-07-23T13:26:13;34.70;58.30
11264;DHT22;5689;48.798;9.070;2022-07-23T13:28:41;34.90;57.90
11264;DHT22;5689;48.798;9.070;2022-07-23T13:31:09;34.30;58.80
11264;DHT22;5689;48.798;9.070;2022-07-23T13:33:37;33.90;60.00
11264;DHT22;5689;48.798;9.070;2022-07-23T13:36:06;34.60;58.60
11264;DHT22;5689;48.798;9.070;2022-07-23T13:38:35;36.80;55.80
11264;DHT22;5689;48.798;9.070;2022-07-23T13:41:03;36.10;56.20
11264;DHT22;5689;48.798;9.070;2022-07-23T13:43:32;36.50;56.20
11264;DHT22;5689;48.798;9.070;2022-07-23T13:46:00;37.20;55.00
11264;DHT22;5689;48.798;9.070;2022-07-23T13:48:28;38.20;53.30
11264;DHT22;5689;48.798;9.070;2022-07-23T13:50:56;36.20;55.60
11264;DHT22;5689;48.798;9.070;2022-07-23T13:53:24;36.10;56.30
11264;DHT22;5689;48.798;9.070;2022-07-23T13:55:54;37.60;53.80
11264;DHT22;5689;48.798;9.070;2022-07-23T13:58:22;39.10;52.30
11264;DHT22;5689;48.798;9.070;2022-07-23T14:00:52;37.70;53.80
11264;DHT22;5689;48.798;9.070;2022-07-23T14:03:21;38.10;53.60
11264;DHT22;5689;48.798;9.070;2022-07-23T14:05:51;36.70;53.80
11264;DHT22;5689;48.798;9.070;2022-07-23T14:08:19;36.90;55.00
11264;DHT22;5689;48.798;9.070;2022-07-23T14:10:47;38.40;52.40
11264;DHT22;5689;48.798;9.070;2022-07-23T14:13:16;36.50;53.70
11264;DHT22;5689;48.798;9.070;2022-07-23T14:15:44;36.00;54.20
11264;DHT22;5689;48.798;9.070;2022-07-23T14:18:12;36.50;54.60
11264;DHT22;5689;48.798;9.070;2022-07-23T14:20:40;36.20;52.80
11264;DHT22;5689;48.798;9.070;2022-07-23T14:23:08;36.40;52.90
11264;DHT22;5689;48.798;9.070;2022-07-23T14:25:36;38.20;50.90
11264;DHT22;5689;48.798;9.070;2022-07-23T14:28:04;39.20;49.50
11264;DHT22;5689;48.798;9.070;2022-07-23T14:30:34;37.50;52.30
11264;DHT22;5689;48.798;9.070;2022-07-23T14:33:01;37.00;53.00
11264;DHT22;5689;48.798;9.070;2022-07-23T14:35:29;36.90;52.50
11264;DHT22;5689;48.798;9.070;2022-07-23T14:37:57;35.50;54.20
11264;DHT22;5689;48.798;9.070;2022-07-23T14:40:25;35.10;54.00
11264;DHT22;5689;48.798;9.070;2022-07-23T14:42:54;33.90;56.80
11264;DHT22;5689;48.798;9.070;2022-07-23T14:45:22;36.10;53.30
11264;DHT22;5689;48.798;9.070;2022-07-23T14:47:51;35.40;54.80
11264;DHT22;5689;48.798;9.070;2022-07-23T14:50:19;35.00;54.60
11264;DHT22;5689;48.798;9.070;2022-07-23T14:52:47;34.50;56.00
11264;DHT22;5689;48.798;9.070;2022-07-23T14:55:16;35.00;55.70
11264;DHT22;5689;48.798;9.070;2022-07-23T14:57:45;34.50;55.20
11264;DHT22;5689;48.798;9.070;2022-07-23T15:00:13;32.80;58.10
11264;DHT22;5689;48.798;9.070;2022-07-23T15:02:42;32.60;58.00
11264;DHT22;5689;48.798;9.070;2022-07-23T15:05:12;31.30;59.90
11264;DHT22;5689;48.798;9.070;2022-07-23T15:07:40;30.80;62.10
11264;DHT22;5689;48.798;9.070;2022-07-23T15:10:09;31.20;62.00
11264;DHT22;5689;48.798;9.070;2022-07-23T15:12:37;31.90;60.70
11264;DHT22;5689;48.798;9.070;2022-07-23T15:15:05;32.00;60.60
11264;DHT22;5689;48.798;9.070;2022-07-23T15:17:34;33.40;58.80
11264;DHT22;5689;48.798;9.070;2022-07-23T15:20:02;34.10;57.80
11264;DHT22;5689;48.798;9.070;2022-07-23T15:22:32;33.10;58.40
11264;DHT22;5689;48.798;9.070;2022-07-23T15:25:00;33.20;58.50
11264;DHT22;5689;48.798;9.070;2022-07-23T15:27:28;32.20;60.90
11264;DHT22;5689;48.798;9.070;2022-07-23T15:29:56;32.10;60.70
11264;DHT22;5689;48.798;9.070;2022-07-23T15:32:24;31.90;60.70
11264;DHT22;5689;48.798;9.070;2022-07-23T15:34:54;31.80;62.10
11264;DHT22;5689;48.798;9.070;2022-07-23T15:37:22;31.90;62.20
11264;DHT22;5689;48.798;9.070;2022-07-23T15:39:52;31.90;62.70
11264;DHT22;5689;48.798;9.070;2022-07-23T15:42:20;32.30;62.90
11264;DHT22;5689;48.798;9.070;2022-07-23T15:44:48;32.10;62.30
11264;DHT22;5689;48.798;9.070;2022-07-23T15:47:17;32.00;61.90
11264;DHT22;5689;48.798;9.070;2022-07-23T15:49:47;32.30;62.30
11264;DHT22;5689;48.798;9.070;2022-07-23T15:52:15;32.40;61.20
11264;DHT22;5689;48.798;9.070;2022-07-23T15:54:43;33.30;60.40
11264;DHT22;5689;48.798;9.070;2022-07-23T15:57:12;33.60;59.90
11264;DHT22;5689;48.798;9.070;2022-07-23T15:59:40;33.90;58.30
11264;DHT22;5689;48.798;9.070;2022-07-23T16:02:09;33.20;59.60
11264;DHT22;5689;48.798;9.070;2022-07-23T16:04:37;32.80;60.00
11264;DHT22;5689;48.798;9.070;2022-07-23T16:07:05;31.80;62.30